Gainesville, GA

6:22 PM EST on February 10, 2016 (GMT -0500)
Access-WDUN | | Change Station
CLOSE
Current Station
Personal Weather Station
Location: Gainesville, GA
Elevation: 1279 ft
Nearby Weather Stations
Active Advisory: Special Statement

Elev 1279 ft 34.32 °N, 83.83 °W | Updated 5 seconds ago

Clear
Clear
32.2 °F
Feels Like 28 °F
N
4.0
Wind Variable Wind from West
Gusts 16.0 mph

Today
High -- | Low -- °F
--% Chance of Precip.
Yesterday
High -- | Low -- °F
Precip. -- in
Pressure 30.11 in
Visibility 10.0 miles
Clouds Clear
Windchill 28 °F
Dew Point 12 °F
Humidity 42%
Rainfall 0.00 in
Snow Depth Not available.
7:25 AM 6:13 PM
Waxing Crescent, 8% visible
METAR KGVL 102253Z AUTO 28009KT 10SM CLR 00/M14 A3008 RMK AO2 SLP195 T00001139
Pressure 30.11 in
Visibility 10.0 miles
Clouds Clear
Windchill 28 °F
Dew Point 12 °F
Humidity 42%
Rainfall 0.00 in
Snow Depth Not available.
7:25 AM 6:13 PM
Waxing Crescent, 8% visible
METAR KGVL 102253Z AUTO 28009KT 10SM CLR 00/M14 A3008 RMK AO2 SLP195 T00001139

10-Day Weather Forecast

Almanac

Astronomy

Feb. 10, 2016 Rise Set
Actual Time
Civil Twilight
Nautical Twilight
Astronomical Twilight
Moon
Length of Visible Light
Length of Day
Tomorrow will be .
, % of the Moon is Illuminated

Today's Extremes

State Highs State Lows

Community

WunderPhotos

Upload Photos

1,891,935 photos uploaded!

WunderBlog® & News

Nearby

Air Quality

  Air Quality AQ Index Pollutant
Not available.

Snow Depth

Station Depth Elevation

Earthquake Activity

City Distance Mag. Time & Date
Minimum magnitude displayed is 2.5.

Coastal Water Temperatures

Place Temperature

Stations

Nearby Weather Stations

Station Location Temp. Windchill Dew Point Humidity Wind Precip. Elev Updated Type
                   

Watches & Warnings

Special Statement
Issued: 1:22 PM EST Feb. 10, 2016 – National Weather Service

... Patchy black ice will continue through early Thursday morning
across extreme north Georgia...

Patchy black ice... mainly in sheltered areas continues this
afternoon across extreme north Georgia and will continue into
early Thursday morning. Some melting on roads has occurred with
todays sunshine... however refreezing will occur after sunset
tonight. The main area of concern is generally north of a line
from Rome to Gainesville to Cleveland. Secondary roads... bridges
and overpasses will be most prone to seeing black ice.

Motorists are urged to use extreme caution through early Thursday
morning.